Time;durP1;ratioP1;P1;durP2;ratioP2;P2;SDS_P1;SDS_P2;PMS_P1;PMS_P2;Temp;Humidity;BMP_temperature;BMP_pressure;BME280_temperature;BME280_humidity;BME280_pressure;Samples;Min_cycle;Max_cycle;Signal;HPM_P1;HPM_P2
2020/12/31 00:01:16;;;;;;;0.77;0.57;;;7.00;99.90;;;;;;4955539;28;20224;-96
2020/12/31 00:03:51;;;;;;;0.80;0.60;;;7.00;99.90;;;;;;4955217;29;20228;-96
2020/12/31 00:06:24;;;;;;;2.57;0.70;;;7.10;99.90;;;;;;4951310;28;20258;-96
2020/12/31 00:08:55;;;;;;;1.37;0.70;;;7.10;99.90;;;;;;4946807;28;20209;-96
2020/12/31 00:11:27;;;;;;;1.07;0.57;;;7.10;99.90;;;;;;4950472;29;20201;-96
2020/12/31 00:14:00;;;;;;;1.90;0.50;;;7.10;99.90;;;;;;4951399;28;20212;-96
2020/12/31 00:16:33;;;;;;;1.57;0.70;;;7.10;99.90;;;;;;4950239;29;20212;-96
2020/12/31 00:19:04;;;;;;;0.80;0.60;;;7.10;99.90;;;;;;4955185;28;20251;-96
2020/12/31 00:21:35;;;;;;;1.23;0.70;;;7.10;99.90;;;;;;4957749;28;20609;-96
2020/12/31 00:24:07;;;;;;;2.77;0.50;;;7.10;99.90;;;;;;4942037;29;20227;-91
2020/12/31 00:26:41;;;;;;;2.23;0.60;;;7.00;99.90;;;;;;4957110;29;20240;-96
2020/12/31 00:29:12;;;;;;;2.40;0.60;;;7.00;99.90;;;;;;4962745;28;20200;-96
2020/12/31 00:31:43;;;;;;;3.13;0.70;;;7.00;99.90;;;;;;4963773;28;20192;-95
2020/12/31 00:34:16;;;;;;;1.80;0.40;;;7.00;99.90;;;;;;4959542;28;20216;-96
2020/12/31 00:36:48;;;;;;;1.60;0.60;;;7.00;99.90;;;;;;4957760;28;20607;-95
2020/12/31 00:41:55;;;;;;;1.30;0.70;;;7.20;99.90;;;;;;5149058;23;20234;-96
2020/12/31 00:44:26;;;;;;;2.70;0.70;;;7.30;99.90;;;;;;4968825;28;20211;-96
2020/12/31 00:46:57;;;;;;;1.17;0.50;;;7.30;99.90;;;;;;4970714;28;20748;-96
2020/12/31 00:49:28;;;;;;;2.53;0.60;;;7.30;99.90;;;;;;4965035;28;20239;-96
2020/12/31 00:51:58;;;;;;;3.87;0.90;;;7.30;99.90;;;;;;4967871;28;20203;-96
2020/12/31 00:54:28;;;;;;;4.30;0.80;;;7.30;99.90;;;;;;4984610;28;20221;-91
2020/12/31 00:57:00;;;;;;;1.87;0.57;;;7.30;99.90;;;;;;5480972;23;20248;-94
2020/12/31 00:59:33;;;;;;;1.53;0.60;;;7.30;99.90;;;;;;4968498;28;20216;-96
2020/12/31 01:40:17;;;;;;;3.23;0.80;;;8.00;99.90;;;;;;4622876;23;10001901;-92
2020/12/31 01:42:48;;;;;;;3.67;1.30;;;8.10;99.90;;;;;;4933843;29;20229;-96
2020/12/31 01:58:37;;;;;;;3.30;0.77;;;8.20;99.90;;;;;;5218567;23;20230;-95
2020/12/31 02:01:10;;;;;;;3.90;0.80;;;8.30;99.90;;;;;;4949286;29;20238;-93
2020/12/31 02:03:41;;;;;;;3.30;0.90;;;8.30;99.90;;;;;;4951024;29;20224;-89
2020/12/31 02:19:31;;;;;;;4.23;1.27;;;7.90;99.90;;;;;;4954857;29;20221;-92
2020/12/31 02:22:03;;;;;;;4.80;1.20;;;7.80;99.90;;;;;;4957615;29;20267;-93
2020/12/31 02:24:34;;;;;;;5.27;1.40;;;7.70;99.90;;;;;;4959925;29;20227;-94
2020/12/31 02:27:05;;;;;;;2.73;0.90;;;7.60;99.90;;;;;;4959106;29;20217;-92
2020/12/31 02:29:36;;;;;;;3.80;0.80;;;7.60;99.90;;;;;;4949717;29;20240;-92
2020/12/31 02:32:07;;;;;;;1.93;0.90;;;7.70;99.90;;;;;;4959694;29;20554;-92
2020/12/31 02:34:38;;;;;;;2.20;0.70;;;7.70;99.90;;;;;;4956324;28;20263;-92
2020/12/31 02:37:11;;;;;;;1.97;0.70;;;7.80;99.90;;;;;;4951994;29;20206;-91
2020/12/31 02:39:41;;;;;;;1.70;0.80;;;7.80;99.90;;;;;;4957427;29;20209;-92
2020/12/31 02:42:12;;;;;;;5.10;0.87;;;7.80;99.90;;;;;;4956760;29;20201;-91
2020/12/31 02:44:44;;;;;;;5.40;0.77;;;7.70;99.90;;;;;;4956760;29;20202;-90
2020/12/31 02:47:15;;;;;;;1.50;0.60;;;7.80;99.90;;;;;;4951162;29;20450;-92
2020/12/31 02:49:45;;;;;;;2.83;0.90;;;7.90;99.90;;;;;;4949701;29;20260;-90
2020/12/31 02:52:19;;;;;;;1.90;0.67;;;7.90;99.90;;;;;;4956270;28;20194;-96
2020/12/31 02:54:50;;;;;;;5.67;0.70;;;7.90;99.90;;;;;;4956059;28;20189;-93
2020/12/31 02:57:26;;;;;;;2.70;1.10;;;7.80;99.90;;;;;;4952702;28;20188;-94
2020/12/31 03:10:41;;;;;;;1.00;0.90;;;7.70;99.90;;;;;;5162801;23;20239;-94
2020/12/31 03:13:11;;;;;;;4.73;1.00;;;7.70;99.90;;;;;;5014587;23;20241;-95
2020/12/31 03:15:42;;;;;;;2.87;1.10;;;7.70;99.90;;;;;;4934712;29;20189;-94
2020/12/31 03:18:13;;;;;;;5.63;1.40;;;7.70;99.90;;;;;;5088617;23;20231;-94
2020/12/31 03:20:45;;;;;;;1.27;0.80;;;7.60;99.90;;;;;;4971668;28;20199;-93
2020/12/31 03:23:15;;;;;;;2.43;0.87;;;7.70;99.90;;;;;;4973645;28;20574;-92
2020/12/31 03:25:47;;;;;;;2.60;1.07;;;7.60;99.90;;;;;;4974882;28;20211;-92
2020/12/31 03:28:18;;;;;;;1.73;0.70;;;7.60;99.90;;;;;;4980620;28;20199;-93
2020/12/31 03:30:48;;;;;;;2.13;0.67;;;7.70;99.90;;;;;;4968545;28;20211;-95
2020/12/31 03:33:19;;;;;;;2.50;0.83;;;7.80;99.90;;;;;;4957827;28;20220;-94
2020/12/31 03:35:51;;;;;;;4.03;1.17;;;7.90;99.90;;;;;;4955322;29;20208;-95
2020/12/31 03:38:22;;;;;;;3.20;0.90;;;7.80;99.90;;;;;;4943014;29;20212;-95
2020/12/31 04:21:33;;;;;;;1.77;0.60;;;7.70;99.90;;;;;;5743393;23;20234;-91
2020/12/31 06:04:37;;;;;;;1.70;0.60;;;7.70;99.90;;;;;;5249290;23;10002139;-94
2020/12/31 06:07:27;;;;;;;2.10;0.80;;;7.80;99.90;;;;;;4967018;29;20287;-96
2020/12/31 06:20:12;;;;;;;2.87;1.00;;;7.50;99.90;;;;;;4955888;28;20212;-94
2020/12/31 06:23:07;;;;;;;2.60;0.87;;;7.50;99.90;;;;;;4956703;29;20224;-96
2020/12/31 06:28:47;;;;;;;4.10;1.40;;;7.50;99.90;;;;;;4955517;28;20515;-95
2020/12/31 06:31:19;;;;;;;2.13;0.80;;;7.50;99.90;;;;;;4954427;29;20212;-96
2020/12/31 06:33:51;;;;;;;4.73;0.97;;;7.50;99.90;;;;;;4956897;29;20264;-95
2020/12/31 06:39:22;;;;;;;0.97;0.70;;;7.50;99.90;;;;;;4950825;29;20205;-92
2020/12/31 06:41:56;;;;;;;1.93;0.80;;;7.40;99.90;;;;;;4959618;28;20228;-94
2020/12/31 06:44:31;;;;;;;3.17;0.90;;;7.40;99.90;;;;;;4951584;28;20261;-96
2020/12/31 06:47:01;;;;;;;2.50;0.93;;;7.40;99.90;;;;;;4954571;29;20200;-94
2020/12/31 06:49:53;;;;;;;3.33;1.17;;;7.30;99.90;;;;;;5276840;23;20267;-96
2020/12/31 06:52:26;;;;;;;2.10;0.80;;;7.30;99.90;;;;;;4967289;28;20211;-96
2020/12/31 06:57:44;;;;;;;5.67;0.63;;;7.20;99.90;;;;;;4974393;28;20229;-96
2020/12/31 07:08:40;;;;;;;2.87;0.90;;;7.20;99.90;;;;;;5851593;23;20256;-96
2020/12/31 07:11:12;;;;;;;2.93;0.90;;;7.20;99.90;;;;;;4976567;28;20202;-95
2020/12/31 07:13:43;;;;;;;4.17;0.90;;;7.20;99.90;;;;;;5100618;23;20241;-95
2020/12/31 07:16:17;;;;;;;4.30;1.10;;;7.20;99.90;;;;;;5028683;23;20234;-96
2020/12/31 07:21:32;;;;;;;20.40;2.20;;;7.20;99.90;;;;;;5918942;23;20182;-95
2020/12/31 07:24:23;;;;;;;2.67;0.80;;;7.30;99.90;;;;;;5246812;23;21117;-94
2020/12/31 07:29:35;;;;;;;5.37;1.47;;;7.20;99.90;;;;;;5943314;23;20618;-95
2020/12/31 07:32:07;;;;;;;4.97;1.00;;;7.30;99.90;;;;;;5653958;23;20234;-95
2020/12/31 07:34:45;;;;;;;5.23;1.90;;;7.20;99.90;;;;;;4970285;28;20206;-94
2020/12/31 07:37:15;;;;;;;2.67;0.93;;;7.20;99.90;;;;;;5025523;23;20231;-96
2020/12/31 10:13:27;;;;;;;2.00;0.50;;;7.60;99.90;;;;;;4936657;29;20250;-94
2020/12/31 10:16:00;;;;;;;1.10;0.50;;;7.60;99.90;;;;;;4936471;29;20284;-94
2020/12/31 10:18:32;;;;;;;0.87;0.40;;;7.60;99.90;;;;;;4940407;29;20220;-93
2020/12/31 10:21:02;;;;;;;0.80;0.43;;;7.70;99.90;;;;;;4936758;29;20193;-94
2020/12/31 10:23:37;;;;;;;0.87;0.57;;;7.70;99.90;;;;;;4940409;29;20271;-95
2020/12/31 10:39:20;;;;;;;1.77;0.60;;;7.70;99.90;;;;;;4952443;29;20219;-95
2020/12/31 10:41:51;;;;;;;0.83;0.50;;;7.70;99.90;;;;;;4956998;29;20224;-95
2020/12/31 10:44:22;;;;;;;1.27;0.53;;;7.70;99.90;;;;;;4952995;29;20233;-95
2020/12/31 10:46:52;;;;;;;1.33;0.50;;;7.70;99.90;;;;;;4958969;28;20205;-95
2020/12/31 10:49:23;;;;;;;1.50;0.50;;;7.70;99.90;;;;;;4959243;29;20204;-96
2020/12/31 10:51:54;;;;;;;1.37;0.60;;;7.80;99.90;;;;;;4965560;28;20223;-95
2020/12/31 10:54:36;;;;;;;1.27;0.70;;;7.70;99.90;;;;;;5158488;23;20472;-96
2020/12/31 10:59:49;;;;;;;3.20;0.60;;;7.80;99.90;;;;;;5488899;23;20253;-95
2020/12/31 11:02:20;;;;;;;3.47;0.90;;;7.80;99.90;;;;;;4973505;28;20320;-95
2020/12/31 11:04:50;;;;;;;1.13;0.70;;;7.70;99.90;;;;;;4974894;28;20235;-95
2020/12/31 11:07:21;;;;;;;2.33;0.63;;;7.80;99.90;;;;;;4980800;28;20204;-95
2020/12/31 11:12:29;;;;;;;3.37;0.50;;;7.80;99.90;;;;;;5532050;23;20238;-95
2020/12/31 11:14:59;;;;;;;1.87;0.57;;;7.90;99.90;;;;;;4982219;28;20186;-95
2020/12/31 11:17:29;;;;;;;1.07;0.80;;;7.90;99.90;;;;;;4981479;28;20204;-95
2020/12/31 11:20:02;;;;;;;1.47;0.50;;;7.80;99.90;;;;;;4968314;28;20268;-93
2020/12/31 11:22:35;;;;;;;3.57;0.77;;;7.90;99.90;;;;;;4970512;28;20207;-94
2020/12/31 11:25:06;;;;;;;1.90;0.70;;;7.90;99.90;;;;;;4975951;28;20238;-94
2020/12/31 11:27:38;;;;;;;1.77;0.70;;;7.80;99.90;;;;;;4975108;28;20231;-95
2020/12/31 11:30:09;;;;;;;2.23;0.77;;;7.90;99.90;;;;;;5145685;23;20246;-90
2020/12/31 11:37:58;;;;;;;0.70;0.40;;;7.90;99.90;;;;;;5695062;23;20250;-96
2020/12/31 11:40:29;;;;;;;1.43;0.50;;;7.90;99.90;;;;;;4967550;28;20206;-94
2020/12/31 11:43:01;;;;;;;2.50;0.60;;;7.90;99.90;;;;;;4972643;28;20203;-94
2020/12/31 11:45:32;;;;;;;3.10;0.70;;;8.00;99.90;;;;;;4973391;28;20193;-95
2020/12/31 11:48:03;;;;;;;0.73;0.40;;;8.00;99.90;;;;;;4971695;28;20201;-94
2020/12/31 11:50:33;;;;;;;1.53;0.53;;;8.00;99.90;;;;;;4975036;28;20203;-94
2020/12/31 11:53:05;;;;;;;3.17;0.63;;;8.00;99.90;;;;;;4982802;28;20205;-96
2020/12/31 11:55:43;;;;;;;2.03;0.43;;;8.00;99.90;;;;;;5754584;23;20236;-95
2020/12/31 11:58:15;;;;;;;1.50;0.53;;;8.00;99.90;;;;;;5233368;23;20252;-96
2020/12/31 12:00:46;;;;;;;0.60;0.40;;;8.00;99.90;;;;;;4950314;28;20199;-95
2020/12/31 12:05:52;;;;;;;0.90;0.60;;;8.00;99.90;;;;;;5731301;23;20232;-91
2020/12/31 12:08:28;;;;;;;0.77;0.40;;;7.90;99.90;;;;;;4974335;28;20219;-94
2020/12/31 12:11:01;;;;;;;1.37;0.50;;;7.90;99.90;;;;;;4967000;28;20201;-95
2020/12/31 12:13:33;;;;;;;0.53;0.53;;;7.90;99.90;;;;;;5146617;23;20236;-94
2020/12/31 12:16:05;;;;;;;0.30;0.30;;;7.90;99.90;;;;;;4967865;28;20215;-95
2020/12/31 12:18:35;;;;;;;0.40;0.40;;;7.90;99.90;;;;;;4970191;28;20208;-95
2020/12/31 12:21:12;;;;;;;1.97;0.50;;;7.90;99.90;;;;;;4969785;28;20219;-95
2020/12/31 12:23:42;;;;;;;0.50;0.50;;;7.90;99.90;;;;;;4981324;23;20258;-95
2020/12/31 12:26:13;;;;;;;0.40;0.40;;;7.90;99.90;;;;;;4969666;28;20823;-95
2020/12/31 12:28:45;;;;;;;0.73;0.57;;;7.90;99.90;;;;;;4956429;28;20224;-94
2020/12/31 12:31:16;;;;;;;1.23;0.50;;;7.90;99.90;;;;;;4960911;28;20212;-95
2020/12/31 12:33:48;;;;;;;0.97;0.50;;;7.90;99.90;;;;;;4956435;29;20209;-94
2020/12/31 12:36:19;;;;;;;1.10;0.40;;;7.90;99.90;;;;;;4941706;29;20221;-94
2020/12/31 12:38:49;;;;;;;0.83;0.60;;;7.90;99.90;;;;;;4934048;29;21190;-95
2020/12/31 12:44:24;;;;;;;0.93;0.50;;;7.90;99.90;;;;;;4944122;29;20224;-93
2020/12/31 12:46:56;;;;;;;0.60;0.40;;;7.90;99.90;;;;;;4936622;29;20192;-94
2020/12/31 12:49:26;;;;;;;1.10;0.50;;;7.90;99.90;;;;;;4944606;29;20201;-95
2020/12/31 12:51:57;;;;;;;0.53;0.53;;;7.90;99.90;;;;;;4940748;29;20205;-95
2020/12/31 12:54:28;;;;;;;1.27;0.57;;;7.90;99.90;;;;;;4939839;29;20205;-95
2020/12/31 12:56:59;;;;;;;0.83;0.40;;;7.90;99.90;;;;;;4944508;29;20253;-94
2020/12/31 12:59:32;;;;;;;0.50;0.50;;;7.90;99.90;;;;;;4943402;29;20229;-95
2020/12/31 13:02:03;;;;;;;1.30;0.63;;;7.90;99.90;;;;;;4943307;29;20227;-93
2020/12/31 13:04:33;;;;;;;1.33;0.60;;;7.90;99.90;;;;;;4945537;29;20241;-95
2020/12/31 13:07:04;;;;;;;2.57;0.40;;;7.90;99.90;;;;;;4943185;29;20264;-94
2020/12/31 13:09:36;;;;;;;1.23;0.57;;;7.90;99.90;;;;;;4949454;29;20204;-94
2020/12/31 13:12:22;;;;;;;1.23;0.40;;;7.90;99.90;;;;;;4952682;29;20603;-95
2020/12/31 13:14:55;;;;;;;1.37;0.60;;;8.00;99.90;;;;;;4941606;28;20224;-94
2020/12/31 13:17:25;;;;;;;1.07;0.67;;;8.00;99.90;;;;;;4946197;29;20209;-94
2020/12/31 13:19:55;;;;;;;0.90;0.70;;;8.00;99.90;;;;;;4936589;29;20404;-93
2020/12/31 13:22:29;;;;;;;0.97;0.60;;;8.00;99.90;;;;;;4945279;29;20246;-93
2020/12/31 13:25:01;;;;;;;0.70;0.70;;;8.00;99.90;;;;;;4941942;29;20242;-92
2020/12/31 13:27:49;;;;;;;0.40;0.40;;;8.10;99.90;;;;;;4944158;29;20312;-93
2020/12/31 13:30:22;;;;;;;2.40;0.70;;;8.10;99.90;;;;;;4939233;29;20212;-93
2020/12/31 13:32:53;;;;;;;1.17;0.57;;;8.10;99.90;;;;;;4935893;29;20253;-93
2020/12/31 13:35:24;;;;;;;3.03;0.67;;;8.10;99.90;;;;;;4939517;29;20203;-91
2020/12/31 13:37:55;;;;;;;0.53;0.43;;;8.10;99.90;;;;;;4934707;29;20206;-94
2020/12/31 13:40:26;;;;;;;1.77;0.67;;;8.10;99.90;;;;;;4940419;29;20280;-94
2020/12/31 13:42:57;;;;;;;1.77;0.50;;;8.20;99.90;;;;;;4941018;29;20213;-94
2020/12/31 13:45:29;;;;;;;0.90;0.60;;;8.20;99.90;;;;;;4941921;29;20260;-95
2020/12/31 13:48:00;;;;;;;0.93;0.60;;;8.20;99.90;;;;;;4937187;29;20223;-95
2020/12/31 13:50:32;;;;;;;0.60;0.50;;;8.20;99.90;;;;;;4941616;29;20221;-95
2020/12/31 13:53:04;;;;;;;1.33;0.50;;;8.20;99.90;;;;;;4941609;29;20228;-96
2020/12/31 13:55:35;;;;;;;2.23;0.53;;;8.30;99.90;;;;;;4943852;29;20201;-95
2020/12/31 13:58:05;;;;;;;2.47;0.60;;;8.30;99.90;;;;;;4937699;29;20277;-95
2020/12/31 14:00:39;;;;;;;2.07;0.43;;;8.30;99.90;;;;;;4942728;29;20237;-95
2020/12/31 14:03:10;;;;;;;1.83;0.37;;;8.30;99.90;;;;;;4944968;29;20264;-95
2020/12/31 14:05:41;;;;;;;2.50;0.70;;;8.30;99.90;;;;;;4943264;29;20215;-94
2020/12/31 14:08:11;;;;;;;1.20;0.50;;;8.30;99.90;;;;;;4944618;29;20233;-94
2020/12/31 14:10:42;;;;;;;0.90;0.60;;;8.30;99.90;;;;;;4944473;29;20217;-94
2020/12/31 14:13:12;;;;;;;0.60;0.50;;;8.30;99.90;;;;;;4946120;29;20228;-94
2020/12/31 14:18:11;;;;;;;1.20;0.57;;;8.30;99.90;;;;;;4965529;28;20208;-93
2020/12/31 14:20:42;;;;;;;1.30;0.70;;;8.30;99.90;;;;;;4993723;23;20302;-93
2020/12/31 14:23:13;;;;;;;1.43;0.70;;;8.30;99.90;;;;;;4972651;28;20209;-93
2020/12/31 14:25:43;;;;;;;2.57;0.80;;;8.30;99.90;;;;;;4967283;28;20216;-93
2020/12/31 14:28:15;;;;;;;0.80;0.50;;;8.30;99.90;;;;;;4976332;28;20207;-93
2020/12/31 14:30:46;;;;;;;0.77;0.40;;;8.30;99.90;;;;;;4978496;28;20204;-93
2020/12/31 14:33:18;;;;;;;1.47;0.50;;;8.30;99.90;;;;;;4977418;28;20228;-93
2020/12/31 14:35:49;;;;;;;1.63;0.60;;;8.30;99.90;;;;;;4968105;28;20206;-93
2020/12/31 14:38:20;;;;;;;0.67;0.67;;;8.30;99.90;;;;;;4975237;28;20186;-94
2020/12/31 14:40:51;;;;;;;0.80;0.60;;;8.30;99.90;;;;;;4970186;28;20201;-93
2020/12/31 14:43:22;;;;;;;0.70;0.60;;;8.20;99.90;;;;;;4975551;28;20214;-93
2020/12/31 14:45:52;;;;;;;1.80;0.73;;;8.20;99.90;;;;;;4972892;28;20214;-92
2020/12/31 14:48:27;;;;;;;1.37;0.80;;;8.20;99.90;;;;;;4967411;28;20211;-92
2020/12/31 14:50:57;;;;;;;1.23;0.60;;;8.20;99.90;;;;;;4972650;28;20211;-93
2020/12/31 14:53:27;;;;;;;1.10;0.80;;;8.20;99.90;;;;;;4968679;28;20233;-94
2020/12/31 14:55:58;;;;;;;1.27;0.80;;;8.20;99.90;;;;;;4969710;28;20218;-94
2020/12/31 14:58:29;;;;;;;2.43;0.77;;;8.10;99.90;;;;;;4973689;28;20204;-91
2020/12/31 15:01:00;;;;;;;1.53;0.57;;;8.20;99.90;;;;;;4971822;28;20199;-92
2020/12/31 15:03:35;;;;;;;2.03;0.80;;;8.20;99.90;;;;;;4978012;28;20267;-93
2020/12/31 15:06:05;;;;;;;1.23;0.93;;;8.10;99.90;;;;;;4970021;28;20209;-93
2020/12/31 15:08:37;;;;;;;1.37;0.80;;;8.20;99.90;;;;;;4960910;28;20199;-94
2020/12/31 15:13:49;;;;;;;3.03;1.00;;;8.10;99.90;;;;;;4970227;23;20239;-94
2020/12/31 15:16:20;;;;;;;2.63;1.10;;;8.10;99.90;;;;;;4936349;29;20213;-93
2020/12/31 15:18:52;;;;;;;1.10;1.00;;;8.10;99.90;;;;;;4940840;29;20205;-93
2020/12/31 15:21:23;;;;;;;1.43;0.83;;;8.10;99.90;;;;;;4933876;29;20624;-93
2020/12/31 15:23:54;;;;;;;1.00;0.60;;;8.10;99.90;;;;;;4938652;29;20247;-93
2020/12/31 15:27:00;;;;;;;2.50;0.60;;;8.10;99.90;;;;;;4939733;29;20201;-95
2020/12/31 15:29:48;;;;;;;1.37;0.57;;;8.10;99.90;;;;;;4942841;28;20255;-95
2020/12/31 15:32:21;;;;;;;1.43;0.60;;;8.10;99.90;;;;;;4945786;29;20264;-92
2020/12/31 15:34:55;;;;;;;2.60;0.70;;;8.10;99.90;;;;;;5221391;23;20262;-94
2020/12/31 15:37:25;;;;;;;1.70;0.77;;;8.10;99.90;;;;;;4963722;28;20199;-95
2020/12/31 15:48:01;;;;;;;5.40;0.77;;;8.00;99.90;;;;;;4978552;28;20222;-93
2020/12/31 15:50:48;;;;;;;2.57;0.40;;;8.00;99.90;;;;;;5000313;23;20303;-92
2020/12/31 15:53:23;;;;;;;0.97;0.50;;;8.00;99.90;;;;;;4975500;28;20234;-93
2020/12/31 15:56:00;;;;;;;2.40;0.50;;;8.00;99.90;;;;;;4977610;28;20226;-93
2020/12/31 15:58:32;;;;;;;0.60;0.53;;;8.00;99.90;;;;;;4971345;28;20215;-93
2020/12/31 16:01:06;;;;;;;3.20;0.70;;;8.00;99.90;;;;;;4976466;28;20808;-93
2020/12/31 16:03:38;;;;;;;2.70;0.70;;;8.00;99.90;;;;;;4969699;28;20219;-93
2020/12/31 16:06:14;;;;;;;1.00;0.57;;;7.90;99.90;;;;;;4965783;28;20235;-92
2020/12/31 16:08:47;;;;;;;1.20;0.63;;;7.90;99.90;;;;;;4963549;28;20231;-94
2020/12/31 16:11:24;;;;;;;1.40;0.50;;;7.90;99.90;;;;;;4971783;28;20247;-93
2020/12/31 16:13:54;;;;;;;3.10;0.80;;;7.90;99.90;;;;;;4974383;28;20212;-93
2020/12/31 16:16:30;;;;;;;1.67;0.70;;;7.90;99.90;;;;;;4967913;28;20203;-92
2020/12/31 16:19:01;;;;;;;3.50;0.90;;;7.90;99.90;;;;;;4976510;28;20207;-92
2020/12/31 16:21:37;;;;;;;2.87;0.63;;;7.90;99.90;;;;;;4966782;28;20207;-91
2020/12/31 16:24:09;;;;;;;2.83;0.70;;;7.90;99.90;;;;;;4966956;28;20258;-89
2020/12/31 16:26:39;;;;;;;2.63;0.60;;;7.90;99.90;;;;;;4968553;28;20254;-92
2020/12/31 16:29:10;;;;;;;3.10;0.73;;;7.90;99.90;;;;;;4981042;28;20199;-92
2020/12/31 16:31:41;;;;;;;2.63;0.67;;;7.90;99.90;;;;;;4974208;28;20314;-92
2020/12/31 16:34:12;;;;;;;1.03;0.63;;;7.90;99.90;;;;;;4976210;28;20215;-93
2020/12/31 16:36:47;;;;;;;2.00;0.60;;;7.90;99.90;;;;;;4982896;28;20264;-92
2020/12/31 16:39:19;;;;;;;2.90;0.90;;;7.90;99.90;;;;;;4978957;28;20195;-93
2020/12/31 16:41:55;;;;;;;0.77;0.60;;;7.90;99.90;;;;;;4989193;28;20199;-93
2020/12/31 16:44:26;;;;;;;1.77;0.70;;;7.90;99.90;;;;;;4980199;28;20226;-93
2020/12/31 16:46:57;;;;;;;4.73;0.60;;;7.90;99.90;;;;;;4979211;28;20997;-93
2020/12/31 16:49:28;;;;;;;1.90;0.60;;;7.90;99.90;;;;;;4982610;28;20219;-94
2020/12/31 16:52:05;;;;;;;7.77;2.30;;;8.00;99.90;;;;;;4973117;28;20266;-91
2020/12/31 16:54:37;;;;;;;4.37;1.40;;;8.00;99.90;;;;;;4974146;28;20207;-92
2020/12/31 16:57:07;;;;;;;4.30;1.70;;;8.00;99.90;;;;;;4971911;28;20209;-91
2020/12/31 16:59:38;;;;;;;4.53;0.93;;;8.00;99.90;;;;;;4974719;28;20310;-92
2020/12/31 17:02:09;;;;;;;2.37;0.80;;;8.00;99.90;;;;;;4975974;28;20227;-91
2020/12/31 17:04:40;;;;;;;4.30;1.03;;;8.00;99.90;;;;;;4975599;28;20278;-93
2020/12/31 17:07:13;;;;;;;5.07;1.40;;;8.00;99.90;;;;;;4972836;28;20198;-92
2020/12/31 17:09:43;;;;;;;2.47;1.00;;;8.00;99.90;;;;;;4980009;28;20211;-92
2020/12/31 17:12:15;;;;;;;2.73;0.70;;;8.00;99.90;;;;;;4976467;28;20540;-93
2020/12/31 17:14:45;;;;;;;4.67;1.37;;;8.00;99.90;;;;;;4978023;28;20220;-93
2020/12/31 17:17:16;;;;;;;2.73;0.63;;;8.00;99.90;;;;;;4977351;28;20211;-92
2020/12/31 17:19:46;;;;;;;3.73;1.00;;;8.10;99.90;;;;;;4976711;28;20211;-93
2020/12/31 17:22:19;;;;;;;4.47;0.90;;;8.10;99.90;;;;;;4975192;28;20226;-93
2020/12/31 17:24:51;;;;;;;5.20;2.10;;;8.10;99.90;;;;;;4978751;28;20278;-93
2020/12/31 17:27:20;;;;;;;20.43;7.73;;;8.10;99.90;;;;;;4973620;28;20258;-92
2020/12/31 17:29:53;;;;;;;4.90;0.90;;;8.10;99.90;;;;;;4974774;28;20193;-93
2020/12/31 17:32:26;;;;;;;3.27;0.80;;;8.20;99.90;;;;;;4978251;28;20214;-93
2020/12/31 17:34:57;;;;;;;4.27;0.93;;;8.20;99.90;;;;;;4980097;28;20208;-92
2020/12/31 17:37:29;;;;;;;5.40;1.03;;;8.20;99.90;;;;;;4974497;28;20203;-94
2020/12/31 17:40:01;;;;;;;3.30;1.00;;;8.20;99.90;;;;;;4979202;28;20280;-94
2020/12/31 17:42:32;;;;;;;6.43;1.40;;;8.20;99.90;;;;;;4985008;28;20197;-93
2020/12/31 17:45:05;;;;;;;5.67;1.63;;;8.20;99.90;;;;;;4971373;28;20227;-94
2020/12/31 17:47:39;;;;;;;4.77;1.10;;;8.20;99.90;;;;;;4974162;28;20239;-92
2020/12/31 17:50:10;;;;;;;7.47;1.43;;;8.20;99.90;;;;;;4970391;28;20227;-92
2020/12/31 17:52:42;;;;;;;4.67;1.40;;;8.20;99.90;;;;;;4977842;28;20292;-94
2020/12/31 17:55:13;;;;;;;5.00;1.60;;;8.30;99.90;;;;;;4980907;28;20233;-93
2020/12/31 17:57:44;;;;;;;4.73;1.33;;;8.30;99.90;;;;;;4966314;28;20223;-92
2020/12/31 18:00:16;;;;;;;9.17;1.50;;;8.30;99.90;;;;;;4970272;28;20223;-92
2020/12/31 18:02:49;;;;;;;6.27;1.37;;;8.30;99.90;;;;;;4976608;28;20204;-92
2020/12/31 18:05:19;;;;;;;6.20;1.47;;;8.40;99.90;;;;;;4972470;28;20235;-93
2020/12/31 18:08:06;;;;;;;7.67;1.60;;;8.40;99.90;;;;;;4974936;28;20214;-92
2020/12/31 18:10:38;;;;;;;4.67;1.17;;;8.40;99.90;;;;;;4978852;28;20242;-93
2020/12/31 18:13:09;;;;;;;4.97;1.57;;;8.40;99.90;;;;;;4976810;28;20282;-93
2020/12/31 18:15:39;;;;;;;4.30;1.10;;;8.40;99.90;;;;;;4977575;28;20213;-93
2020/12/31 18:18:10;;;;;;;2.57;0.80;;;8.60;99.90;;;;;;4979849;28;20208;-93
2020/12/31 18:23:18;;;;;;;2.17;1.00;;;8.70;99.90;;;;;;5206697;23;20247;-94
2020/12/31 18:25:59;;;;;;;4.37;1.07;;;8.80;99.90;;;;;;4952169;29;20236;-93
2020/12/31 18:28:32;;;;;;;2.60;0.43;;;8.80;99.90;;;;;;4951894;29;20218;-92
2020/12/31 18:31:04;;;;;;;4.40;0.97;;;8.90;99.90;;;;;;5021008;23;20220;-91
2020/12/31 18:33:34;;;;;;;2.97;0.97;;;8.90;99.90;;;;;;4954618;29;20201;-91
2020/12/31 18:36:07;;;;;;;1.57;0.57;;;9.00;99.90;;;;;;4955724;28;20228;-93
2020/12/31 18:38:40;;;;;;;3.17;0.60;;;9.00;99.90;;;;;;4955833;28;20260;-94
2020/12/31 18:41:12;;;;;;;3.13;0.90;;;9.10;99.90;;;;;;4954314;28;20203;-95
2020/12/31 18:43:43;;;;;;;1.80;0.60;;;9.20;99.90;;;;;;5046902;23;20306;-92
2020/12/31 18:46:15;;;;;;;1.07;0.40;;;9.20;99.90;;;;;;4940613;29;20224;-92
2020/12/31 18:48:47;;;;;;;3.10;0.60;;;9.20;99.90;;;;;;4938289;29;20200;-92
2020/12/31 18:51:18;;;;;;;1.07;0.50;;;9.10;99.90;;;;;;4946764;29;20196;-94
2020/12/31 18:53:50;;;;;;;1.67;0.60;;;9.10;99.90;;;;;;4942262;29;20191;-91
2020/12/31 18:56:21;;;;;;;1.60;0.50;;;9.00;99.90;;;;;;4948427;29;20233;-93
2020/12/31 18:58:51;;;;;;;2.37;0.50;;;9.10;99.90;;;;;;4944427;29;20231;-94
2020/12/31 19:01:25;;;;;;;0.37;0.30;;;9.10;99.90;;;;;;4943618;29;20212;-94
2020/12/31 19:03:58;;;;;;;1.17;0.30;;;9.00;99.90;;;;;;4942214;29;20223;-95
2020/12/31 19:06:29;;;;;;;1.27;0.40;;;9.10;99.90;;;;;;4939455;29;20203;-91
2020/12/31 19:09:02;;;;;;;1.00;0.50;;;9.10;99.90;;;;;;4926179;29;20264;-95
2020/12/31 19:11:36;;;;;;;0.27;0.23;;;9.10;99.90;;;;;;4938820;29;20294;-94
2020/12/31 19:14:08;;;;;;;1.70;0.60;;;9.20;99.90;;;;;;4941455;29;20212;-94
2020/12/31 19:16:58;;;;;;;1.27;0.50;;;9.10;99.90;;;;;;4937914;29;20207;-90
2020/12/31 19:19:29;;;;;;;1.43;0.60;;;9.10;99.90;;;;;;4935819;29;20223;-94
2020/12/31 19:22:06;;;;;;;1.53;0.63;;;9.00;99.90;;;;;;4934097;29;20229;-96
2020/12/31 19:24:38;;;;;;;2.63;0.60;;;9.00;99.90;;;;;;4931687;29;20229;-93
2020/12/31 19:27:09;;;;;;;0.60;0.40;;;9.10;99.90;;;;;;4934242;29;20250;-93
2020/12/31 19:29:40;;;;;;;3.17;0.60;;;9.00;99.90;;;;;;4936451;29;20215;-93
2020/12/31 19:32:12;;;;;;;3.57;0.80;;;9.10;99.90;;;;;;4936567;29;20212;-93
2020/12/31 19:37:30;;;;;;;1.37;0.40;;;9.10;99.90;;;;;;4936431;29;20245;-92
2020/12/31 19:40:02;;;;;;;1.10;0.50;;;9.10;99.90;;;;;;4936022;28;20209;-94
2020/12/31 19:42:33;;;;;;;1.80;0.60;;;9.10;99.90;;;;;;4935374;29;20216;-94
2020/12/31 19:45:06;;;;;;;3.30;0.60;;;9.10;99.90;;;;;;4939237;29;20239;-95
2020/12/31 19:47:40;;;;;;;1.33;0.40;;;9.10;99.90;;;;;;4918805;29;20200;-95
2020/12/31 19:50:15;;;;;;;1.67;0.70;;;9.10;99.90;;;;;;4928019;29;20218;-92
2020/12/31 19:52:51;;;;;;;2.77;0.60;;;9.20;99.90;;;;;;4936233;29;20278;-94
2020/12/31 19:55:24;;;;;;;2.50;0.40;;;9.20;99.90;;;;;;4929487;29;20283;-92
2020/12/31 19:57:55;;;;;;;2.43;0.70;;;9.30;99.90;;;;;;4930880;29;20242;-95
2020/12/31 20:00:26;;;;;;;2.60;0.67;;;9.30;99.90;;;;;;4928692;29;20290;-94
2020/12/31 20:02:59;;;;;;;0.60;0.40;;;9.30;99.90;;;;;;4939769;29;20693;-95
2020/12/31 20:05:30;;;;;;;1.10;0.50;;;9.10;99.90;;;;;;4933965;29;20239;-93
2020/12/31 20:08:02;;;;;;;2.27;0.57;;;9.10;99.90;;;;;;4929750;29;20212;-93
2020/12/31 20:10:34;;;;;;;0.73;0.40;;;9.20;99.90;;;;;;4930531;29;20215;-93
2020/12/31 20:13:05;;;;;;;1.60;0.47;;;9.20;99.90;;;;;;4936099;29;20259;-93
2020/12/31 20:15:37;;;;;;;3.00;0.40;;;9.20;99.90;;;;;;4932926;29;20213;-92
2020/12/31 20:18:10;;;;;;;1.90;0.50;;;9.30;99.90;;;;;;4926039;29;20243;-95
2020/12/31 20:20:42;;;;;;;0.60;0.30;;;9.40;99.90;;;;;;4934322;29;20285;-94
2020/12/31 20:25:50;;;;;;;0.90;0.40;;;9.40;99.90;;;;;;5042741;23;20237;-94
2020/12/31 20:28:20;;;;;;;1.07;0.40;;;9.40;99.90;;;;;;4971389;28;20207;-94
2020/12/31 20:30:52;;;;;;;1.13;0.30;;;9.40;99.90;;;;;;4973307;28;20210;-93
2020/12/31 20:33:24;;;;;;;1.17;0.40;;;9.40;99.90;;;;;;4972877;28;20206;-95
2020/12/31 20:35:56;;;;;;;3.43;0.50;;;9.50;99.90;;;;;;4976202;28;20208;-96
2020/12/31 20:38:30;;;;;;;2.10;0.40;;;9.50;99.90;;;;;;4966147;28;20214;-96
2020/12/31 20:41:02;;;;;;;1.23;0.53;;;9.50;99.90;;;;;;5141081;23;20210;-95
2020/12/31 20:43:34;;;;;;;0.73;0.20;;;9.40;99.90;;;;;;4970014;28;20372;-90
2020/12/31 20:46:05;;;;;;;0.80;0.40;;;9.40;99.90;;;;;;4969075;28;20266;-94
2020/12/31 20:48:36;;;;;;;1.83;0.30;;;9.40;99.90;;;;;;4962207;28;20208;-92
2020/12/31 20:51:11;;;;;;;1.23;0.60;;;9.30;99.90;;;;;;4960390;28;20222;-91
2020/12/31 20:53:43;;;;;;;2.53;0.60;;;9.30;99.90;;;;;;4966404;28;20226;-92
2020/12/31 20:56:17;;;;;;;4.63;0.70;;;9.30;99.90;;;;;;4970657;28;20206;-92
2020/12/31 20:58:47;;;;;;;0.77;0.57;;;9.30;99.90;;;;;;4979081;28;20275;-91
2020/12/31 21:01:19;;;;;;;1.10;0.60;;;9.30;99.90;;;;;;4973942;28;20203;-96